createdAt,value
2019-02-16T00:00:05.730Z,101624.69
2019-02-16T00:02:34.342Z,101627.22
2019-02-16T00:05:03.113Z,101622.95
2019-02-16T00:07:31.761Z,101617.20
2019-02-16T00:10:00.352Z,101620.10
2019-02-16T00:12:28.990Z,101611.92
2019-02-16T00:14:57.622Z,101619.77
2019-02-16T00:17:26.226Z,101624.59
2019-02-16T00:19:54.971Z,101624.59
2019-02-16T00:22:23.776Z,101621.27
2019-02-16T00:24:52.343Z,101624.44
2019-02-16T00:27:20.953Z,101626.27
2019-02-16T00:29:49.839Z,101629.24
2019-02-16T00:32:18.569Z,101629.45
2019-02-16T00:34:47.135Z,101622.88
2019-02-16T00:37:15.850Z,101622.47
2019-02-16T00:39:44.355Z,101617.37
2019-02-16T00:42:13.130Z,101611.83
2019-02-16T00:44:41.857Z,101611.83
2019-02-16T00:47:10.453Z,101610.22
2019-02-16T00:49:39.067Z,101603.80
2019-02-16T00:52:07.743Z,101601.91
2019-02-16T00:54:36.358Z,101606.40
2019-02-16T00:57:05.052Z,101604.76
2019-02-16T00:59:33.688Z,101603.32
2019-02-16T01:02:02.443Z,101599.36
2019-02-16T01:04:31.020Z,101592.77
2019-02-16T01:06:59.557Z,101601.09
2019-02-16T01:09:28.122Z,101602.55
2019-02-16T01:11:56.975Z,101590.84
2019-02-16T01:14:25.509Z,101585.39
2019-02-16T01:16:54.112Z,101587.56
2019-02-16T01:19:22.794Z,101583.91
2019-02-16T01:21:51.409Z,101583.31
2019-02-16T01:24:20.015Z,101576.41
2019-02-16T01:26:48.814Z,101573.59
2019-02-16T01:29:17.530Z,101569.23
2019-02-16T01:31:46.083Z,101565.51
2019-02-16T01:34:14.722Z,101568.34
2019-02-16T01:36:43.508Z,101558.67
2019-02-16T01:39:12.172Z,101564.80
2019-02-16T01:41:40.782Z,101565.44
2019-02-16T01:44:09.439Z,101558.83
2019-02-16T01:46:38.235Z,101552.78
2019-02-16T01:49:07.271Z,101550.98
2019-02-16T01:51:36.130Z,101548.00
2019-02-16T01:54:04.974Z,101550.67
2019-02-16T01:56:33.610Z,101549.49
2019-02-16T01:59:02.219Z,101552.78
2019-02-16T02:01:30.822Z,101548.72
2019-02-16T02:03:59.379Z,101549.95
2019-02-16T02:06:28.028Z,101551.08
2019-02-16T02:08:56.672Z,101547.70
2019-02-16T02:11:25.290Z,101545.59
2019-02-16T02:13:54.021Z,101539.29
2019-02-16T02:16:22.632Z,101536.71
2019-02-16T02:18:51.224Z,101532.45
2019-02-16T02:21:19.999Z,101528.66
2019-02-16T02:23:48.690Z,101527.73
2019-02-16T02:26:17.546Z,101521.22
2019-02-16T02:28:46.086Z,101519.83
2019-02-16T02:31:14.816Z,101518.95
2019-02-16T02:33:43.849Z,101516.36
2019-02-16T02:36:12.497Z,101515.27
2019-02-16T02:38:41.045Z,101515.84
2019-02-16T02:41:09.724Z,101518.56
2019-02-16T02:43:38.377Z,101521.54
2019-02-16T02:46:06.987Z,101517.54
2019-02-16T02:48:35.536Z,101519.98
2019-02-16T02:51:04.222Z,101514.09
2019-02-16T02:53:32.834Z,101517.77
2019-02-16T02:56:01.452Z,101510.53
2019-02-16T02:58:30.140Z,101507.87
2019-02-16T03:00:58.816Z,101515.10
2019-02-16T03:03:27.474Z,101518.09
2019-02-16T03:05:56.065Z,101512.91
2019-02-16T03:08:24.838Z,101511.84
2019-02-16T03:10:53.455Z,101515.28
2019-02-16T03:13:22.093Z,101514.20
2019-02-16T03:15:50.698Z,101516.77
2019-02-16T03:18:19.302Z,101512.16
2019-02-16T03:20:48.142Z,101512.47
2019-02-16T03:23:19.168Z,101512.78
2019-02-16T03:25:50.683Z,101512.31
2019-02-16T03:28:31.083Z,101505.33
2019-02-16T03:31:22.494Z,101501.63
2019-02-16T03:33:56.614Z,101511.17
2019-02-16T03:36:57.273Z,101506.41
2019-02-16T03:39:26.093Z,101505.07
2019-02-16T03:41:54.690Z,101505.17
2019-02-16T03:44:23.329Z,101503.98
2019-02-16T03:46:51.981Z,101506.20
2019-02-16T03:49:20.622Z,101497.06
2019-02-16T03:51:49.228Z,101491.01
2019-02-16T03:54:17.945Z,101485.75
2019-02-16T03:56:46.677Z,101491.70
2019-02-16T03:59:15.212Z,101503.38
2019-02-16T04:01:43.763Z,101500.55
2019-02-16T04:04:12.476Z,101497.08
2019-02-16T04:06:41.090Z,101488.47
2019-02-16T04:09:09.718Z,101495.39
2019-02-16T04:11:38.326Z,101496.63
2019-02-16T04:14:06.914Z,101498.29
2019-02-16T04:16:35.530Z,101502.41
2019-02-16T04:19:04.177Z,101496.87
2019-02-16T04:21:32.814Z,101494.67
2019-02-16T04:24:01.363Z,101495.39
2019-02-16T04:26:29.994Z,101499.24
2019-02-16T04:28:58.615Z,101495.11
2019-02-16T04:31:27.262Z,101491.94
2019-02-16T04:33:55.976Z,101492.56
2019-02-16T04:36:24.575Z,101496.81
2019-02-16T04:38:53.151Z,101492.95
2019-02-16T04:41:21.750Z,101497.77
2019-02-16T04:43:50.358Z,101494.61
2019-02-16T04:46:18.964Z,101491.97
2019-02-16T04:48:47.623Z,101489.78
2019-02-16T04:51:16.338Z,101491.96
2019-02-16T04:53:45.028Z,101486.23
2019-02-16T04:56:13.677Z,101490.08
2019-02-16T04:58:42.289Z,101480.79
2019-02-16T05:01:10.989Z,101472.77
2019-02-16T05:03:39.575Z,101474.34
2019-02-16T05:06:08.184Z,101478.05
2019-02-16T05:08:36.750Z,101478.59
2019-02-16T05:11:05.352Z,101476.08
2019-02-16T05:13:34.103Z,101474.77
2019-02-16T05:16:03.022Z,101470.80
2019-02-16T05:18:31.591Z,101463.70
2019-02-16T05:21:00.304Z,101462.78
2019-02-16T05:23:28.951Z,101468.39
2019-02-16T05:25:57.630Z,101477.41
2019-02-16T05:28:26.263Z,101469.21
2019-02-16T05:30:54.869Z,101467.95
2019-02-16T05:33:23.628Z,101458.76
2019-02-16T05:35:52.377Z,101470.67
2019-02-16T05:38:20.968Z,101465.48
2019-02-16T05:40:49.645Z,101473.55
2019-02-16T05:43:18.335Z,101475.55
2019-02-16T05:45:47.013Z,101484.91
2019-02-16T05:48:15.712Z,101478.14
2019-02-16T05:50:44.321Z,101473.00
2019-02-16T05:53:13.036Z,101476.23
2019-02-16T05:55:41.655Z,101475.61
2019-02-16T05:58:10.264Z,101478.48
2019-02-16T06:00:38.795Z,101477.34
2019-02-16T06:03:07.894Z,101474.08
2019-02-16T06:05:36.591Z,101476.91
2019-02-16T06:08:05.387Z,101477.08
2019-02-16T06:10:34.215Z,101482.07
2019-02-16T06:13:02.917Z,101481.29
2019-02-16T06:15:31.550Z,101485.79
2019-02-16T06:18:00.218Z,101489.24
2019-02-16T06:20:28.789Z,101492.73
2019-02-16T06:23:03.867Z,101492.16
2019-02-16T06:25:27.689Z,101499.13
2019-02-16T06:27:56.429Z,101496.03
2019-02-16T06:30:24.971Z,101500.36
2019-02-16T06:32:53.589Z,101498.14
2019-02-16T06:35:26.557Z,101500.33
2019-02-16T06:37:55.192Z,101495.91
2019-02-16T06:40:23.803Z,101501.14
2019-02-16T06:42:52.436Z,101498.44
2019-02-16T06:45:21.043Z,101501.08
2019-02-16T06:47:49.659Z,101507.81
2019-02-16T06:50:18.278Z,101506.52
2019-02-16T06:52:47.231Z,101509.52
2019-02-16T06:55:15.942Z,101504.74
2019-02-16T06:57:46.142Z,101509.61
2019-02-16T07:00:16.332Z,101510.99
2019-02-16T07:02:44.947Z,101508.80
2019-02-16T07:05:13.681Z,101510.63
2019-02-16T07:07:42.415Z,101516.30
2019-02-16T07:10:11.035Z,101511.86
2019-02-16T07:12:39.608Z,101507.14
2019-02-16T07:15:08.392Z,101512.18
2019-02-16T07:17:41.563Z,101521.43
2019-02-16T07:20:10.456Z,101523.75
2019-02-16T07:22:39.069Z,101522.92
2019-02-16T07:25:08.616Z,101520.21
2019-02-16T07:27:37.236Z,101520.79
2019-02-16T07:30:08.613Z,101534.35
2019-02-16T07:32:37.229Z,101533.38
2019-02-16T07:35:07.228Z,101534.24
2019-02-16T07:37:35.862Z,101539.34
2019-02-16T07:40:06.002Z,101539.33
2019-02-16T07:42:48.539Z,101535.37
2019-02-16T07:45:19.545Z,101539.37
2019-02-16T07:47:49.996Z,101545.55
2019-02-16T07:50:23.119Z,101546.84
2019-02-16T07:52:56.316Z,101549.31
2019-02-16T07:55:26.496Z,101551.39
2019-02-16T07:57:56.752Z,101551.51
2019-02-16T08:00:26.974Z,101556.59
2019-02-16T08:02:59.991Z,101558.94
2019-02-16T08:05:48.535Z,101553.03
2019-02-16T08:08:18.818Z,101547.28
2019-02-16T08:10:49.160Z,101546.94
2019-02-16T08:13:35.792Z,101540.87
2019-02-16T08:16:21.143Z,101541.16
2019-02-16T08:18:54.161Z,101533.69
2019-02-16T08:21:30.346Z,101536.78
2019-02-16T08:24:15.977Z,101537.20
2019-02-16T08:27:04.389Z,101532.77
2019-02-16T08:29:34.684Z,101536.36
2019-02-16T08:32:08.348Z,101533.55
2019-02-16T08:34:47.567Z,101534.50
2019-02-16T08:37:23.808Z,101536.35
2019-02-16T08:40:09.070Z,101530.44
2019-02-16T08:42:56.091Z,101529.84
2019-02-16T08:45:26.694Z,101535.48
2019-02-16T08:47:59.956Z,101535.17
2019-02-16T08:50:35.997Z,101537.02
2019-02-16T08:53:06.279Z,101538.34
2019-02-16T08:55:52.855Z,101533.24
2019-02-16T08:58:39.246Z,101526.70
2019-02-16T09:01:20.133Z,101519.94
2019-02-16T09:03:53.280Z,101527.06
2019-02-16T09:06:23.678Z,101530.69
2019-02-16T09:08:54.112Z,101524.58
2019-02-16T09:11:33.257Z,101529.09
2019-02-16T09:14:06.549Z,101519.23
2019-02-16T09:16:39.868Z,101524.33
2019-02-16T09:19:26.594Z,101520.75
2019-02-16T09:22:02.542Z,101520.22
2019-02-16T09:24:32.773Z,101512.61
2019-02-16T09:27:10.623Z,101519.62
2019-02-16T09:29:44.777Z,101518.80
2019-02-16T09:32:15.310Z,101510.34
2019-02-16T09:34:51.745Z,101510.19
2019-02-16T09:37:22.233Z,101513.23
2019-02-16T09:39:52.493Z,101516.79
2019-02-16T09:42:39.205Z,101519.15
2019-02-16T09:45:26.427Z,101523.78
2019-02-16T09:47:56.678Z,101519.81
2019-02-16T09:50:28.230Z,101519.54
2019-02-16T09:53:07.640Z,101520.00
2019-02-16T09:55:54.418Z,101519.30
2019-02-16T09:58:27.395Z,101518.24
2019-02-16T10:00:58.164Z,101524.53
2019-02-16T10:03:47.140Z,101518.84
2019-02-16T10:06:20.455Z,101527.70
2019-02-16T10:08:50.952Z,101522.77
2019-02-16T10:11:39.536Z,101527.05
2019-02-16T10:14:12.493Z,101524.49
2019-02-16T10:16:42.796Z,101531.02
2019-02-16T10:19:25.038Z,101535.97
2019-02-16T10:21:58.117Z,101535.63
2019-02-16T10:24:34.173Z,101533.69
2019-02-16T10:27:07.052Z,101533.19
2019-02-16T10:29:53.516Z,101525.36
2019-02-16T10:32:23.764Z,101524.67
2019-02-16T10:34:56.547Z,101530.56
2019-02-16T10:37:26.805Z,101536.30
2019-02-16T10:40:02.967Z,101530.30
2019-02-16T10:42:35.931Z,101535.94
2019-02-16T10:45:09.726Z,101537.86
2019-02-16T10:47:40.116Z,101533.19
2019-02-16T10:50:13.400Z,101541.27
2019-02-16T10:52:52.467Z,101531.06
2019-02-16T10:55:22.770Z,101535.24
2019-02-16T10:57:53.027Z,101538.45
2019-02-16T11:00:35.647Z,101542.30
2019-02-16T11:03:11.851Z,101534.06
2019-02-16T11:05:48.301Z,101531.73
2019-02-16T11:08:19.062Z,101538.79
2019-02-16T11:10:55.293Z,101529.83
2019-02-16T11:13:31.536Z,101534.31
2019-02-16T11:16:04.781Z,101531.20
2019-02-16T11:18:47.358Z,101528.80
2019-02-16T11:21:23.544Z,101524.83
2019-02-16T11:24:06.098Z,101525.12
2019-02-16T11:26:52.820Z,101525.88
2019-02-16T11:29:23.116Z,101514.08
2019-02-16T11:31:53.545Z,101521.19
2019-02-16T11:34:26.616Z,101524.08
2019-02-16T11:37:03.466Z,101516.80
2019-02-16T11:39:39.685Z,101513.78
2019-02-16T11:42:28.557Z,101510.03
2019-02-16T11:44:58.813Z,101514.69
2019-02-16T11:47:32.463Z,101511.07
2019-02-16T11:50:19.078Z,101504.33
2019-02-16T11:53:06.061Z,101497.88
2019-02-16T11:55:39.388Z,101505.16
2019-02-16T11:58:09.638Z,101505.94
2019-02-16T12:00:45.871Z,101506.08
2019-02-16T12:03:16.605Z,101503.62
2019-02-16T12:05:46.896Z,101498.85
2019-02-16T12:08:17.183Z,101498.01
2019-02-16T12:10:56.798Z,101488.16
2019-02-16T12:13:32.882Z,101490.23
2019-02-16T12:16:15.106Z,101485.52
2019-02-16T12:19:01.756Z,101482.59
2019-02-16T12:21:38.710Z,101481.31
2019-02-16T12:24:08.902Z,101481.18
2019-02-16T12:26:39.278Z,101476.44
2019-02-16T12:29:09.482Z,101479.16
2019-02-16T12:31:48.646Z,101478.20
2019-02-16T12:34:30.734Z,101477.73
2019-02-16T12:37:06.603Z,101480.38
2019-02-16T12:39:55.467Z,101475.00
2019-02-16T12:42:28.321Z,101478.17
2019-02-16T12:45:07.738Z,101483.09
2019-02-16T12:47:50.146Z,101479.22
2019-02-16T12:50:20.402Z,101475.58
2019-02-16T12:52:53.457Z,101474.50
2019-02-16T12:55:35.726Z,101473.86
2019-02-16T12:58:06.077Z,101474.63
2019-02-16T13:00:41.908Z,101476.98
2019-02-16T13:03:12.540Z,101470.28
2019-02-16T13:05:59.150Z,101469.06
2019-02-16T13:08:32.296Z,101471.34
2019-02-16T13:11:05.423Z,101459.67
2019-02-16T13:13:35.677Z,101455.66
2019-02-16T13:16:08.766Z,101451.97
2019-02-16T13:18:44.764Z,101443.30
2019-02-16T13:21:15.014Z,101454.13
2019-02-16T13:23:45.272Z,101455.98
2019-02-16T13:26:18.561Z,101443.78
2019-02-16T13:28:51.820Z,101447.34
2019-02-16T13:31:28.557Z,101448.19
2019-02-16T13:34:14.896Z,101449.30
2019-02-16T13:36:57.543Z,101441.16
2019-02-16T13:39:27.761Z,101443.95
2019-02-16T13:41:58.054Z,101435.96
2019-02-16T13:44:37.598Z,101440.79
2019-02-16T13:47:07.882Z,101439.89
2019-02-16T13:49:38.778Z,101436.72
2019-02-16T13:52:24.498Z,101438.05
2019-02-16T13:55:14.185Z,101434.13
2019-02-16T13:57:50.449Z,101439.92
2019-02-16T14:00:35.747Z,101427.04
2019-02-16T14:03:06.045Z,101427.94
2019-02-16T14:05:45.652Z,101423.66
2019-02-16T14:08:21.918Z,101421.90
2019-02-16T14:10:52.179Z,101419.09
2019-02-16T14:13:31.368Z,101420.43
2019-02-16T14:16:19.948Z,101428.22
2019-02-16T14:18:48.530Z,101418.09
2019-02-16T14:21:17.166Z,101424.68
2019-02-16T14:23:45.843Z,101423.16
2019-02-16T14:26:14.462Z,101421.96
2019-02-16T14:28:43.036Z,101432.03
2019-02-16T14:31:12.968Z,101429.59
2019-02-16T14:33:41.578Z,101432.44
2019-02-16T14:36:10.300Z,101433.91
2019-02-16T14:38:40.723Z,101425.98
2019-02-16T14:41:09.420Z,101428.09
2019-02-16T14:43:38.095Z,101436.87
2019-02-16T14:46:06.987Z,101440.84
2019-02-16T14:48:35.605Z,101443.44
2019-02-16T14:51:04.192Z,101434.23
2019-02-16T14:53:32.777Z,101437.58
2019-02-16T14:56:01.396Z,101430.70
2019-02-16T14:58:30.112Z,101426.20
2019-02-16T15:00:59.109Z,101427.09
2019-02-16T15:03:27.760Z,101431.32
2019-02-16T15:05:56.454Z,101438.93
2019-02-16T15:08:25.398Z,101434.42
2019-02-16T15:10:54.254Z,101436.28
2019-02-16T15:13:22.827Z,101442.22
2019-02-16T15:15:51.453Z,101442.10
2019-02-16T15:18:19.942Z,101434.66
2019-02-16T15:20:48.621Z,101445.72
2019-02-16T15:23:17.402Z,101437.03
2019-02-16T15:25:46.026Z,101438.50
2019-02-16T15:28:14.745Z,101431.40
2019-02-16T15:30:43.329Z,101428.95
2019-02-16T15:33:11.872Z,101431.41
2019-02-16T15:35:40.867Z,101426.89
2019-02-16T15:38:09.527Z,101425.79
2019-02-16T15:40:38.075Z,101428.39
2019-02-16T15:43:06.689Z,101425.94
2019-02-16T15:45:35.377Z,101429.62
2019-02-16T15:48:04.816Z,101430.63
2019-02-16T15:50:33.501Z,101425.34
2019-02-16T15:53:02.222Z,101424.48
2019-02-16T15:55:30.872Z,101419.23
2019-02-16T15:57:59.541Z,101424.00
2019-02-16T16:00:29.068Z,101418.99
2019-02-16T16:02:59.624Z,101416.67
2019-02-16T16:05:28.251Z,101417.88
2019-02-16T16:08:10.850Z,101418.34
2019-02-16T16:10:41.108Z,101412.55
2019-02-16T16:13:14.573Z,101412.53
2019-02-16T16:15:44.975Z,101413.71
2019-02-16T16:18:33.416Z,101419.81
2019-02-16T16:21:15.649Z,101418.83
2019-02-16T16:24:02.137Z,101415.86
2019-02-16T16:26:48.958Z,101417.55
2019-02-16T16:29:28.136Z,101419.94
2019-02-16T16:32:04.261Z,101418.83
2019-02-16T16:34:43.737Z,101416.56
2019-02-16T16:37:30.099Z,101420.09
2019-02-16T16:40:00.389Z,101420.14
2019-02-16T16:42:42.541Z,101417.55
2019-02-16T16:45:24.126Z,101415.20
2019-02-16T16:48:06.337Z,101417.27
2019-02-16T16:50:36.959Z,101420.86
2019-02-16T16:53:07.228Z,101421.58
2019-02-16T16:55:43.291Z,101426.68
2019-02-16T16:58:29.511Z,101420.77
2019-02-16T17:01:17.697Z,101421.02
2019-02-16T17:03:56.994Z,101428.45
2019-02-16T17:06:35.963Z,101421.61
2019-02-16T17:09:08.054Z,101421.16
2019-02-16T17:11:44.250Z,101425.75
2019-02-16T17:14:17.033Z,101422.41
2019-02-16T17:16:53.363Z,101426.41
2019-02-16T17:19:29.632Z,101426.27
2019-02-16T17:22:12.479Z,101422.73
2019-02-16T17:24:42.694Z,101421.34
2019-02-16T17:27:15.995Z,101425.12
2019-02-16T17:29:46.268Z,101426.42
2019-02-16T17:32:16.617Z,101438.42
2019-02-16T17:34:49.731Z,101433.03
2019-02-16T17:37:22.717Z,101432.62
2019-02-16T17:39:53.211Z,101432.66
2019-02-16T17:42:39.482Z,101435.55
2019-02-16T17:45:17.230Z,101438.90
2019-02-16T17:47:50.564Z,101441.11
2019-02-16T17:50:39.229Z,101446.34
2019-02-16T17:53:27.476Z,101450.22
2019-02-16T17:56:03.593Z,101451.43
2019-02-16T17:58:36.310Z,101452.63
2019-02-16T18:01:06.627Z,101462.69
2019-02-16T18:03:45.734Z,101458.08
2019-02-16T18:06:21.861Z,101454.73
2019-02-16T18:08:58.250Z,101458.47
2019-02-16T18:11:28.851Z,101455.58
2019-02-16T18:14:07.834Z,101458.84
2019-02-16T18:16:56.438Z,101458.91
2019-02-16T18:19:26.688Z,101459.99
2019-02-16T18:21:57.283Z,101458.38
2019-02-16T18:24:44.150Z,101456.64
2019-02-16T18:27:14.388Z,101453.59
2019-02-16T18:29:59.693Z,101460.26
2019-02-16T18:32:31.558Z,101454.44
2019-02-16T18:35:08.404Z,101457.92
2019-02-16T18:37:51.045Z,101453.89
2019-02-16T18:40:30.463Z,101458.70
2019-02-16T18:43:00.841Z,101456.94
2019-02-16T18:45:40.118Z,101453.27
2019-02-16T18:48:13.055Z,101447.84
2019-02-16T18:50:43.337Z,101452.92
2019-02-16T18:53:22.341Z,101451.77
2019-02-16T18:55:52.580Z,101450.25
2019-02-16T18:58:25.687Z,101446.39
2019-02-16T19:00:56.140Z,101440.84
2019-02-16T19:03:35.214Z,101442.84
2019-02-16T19:06:05.526Z,101441.23
2019-02-16T19:08:35.966Z,101442.77
2019-02-16T19:11:22.534Z,101451.33
2019-02-16T19:13:58.433Z,101445.36
2019-02-16T19:16:37.592Z,101455.31
2019-02-16T19:19:13.816Z,101456.82
2019-02-16T19:21:47.130Z,101450.47
2019-02-16T19:24:17.780Z,101453.30
2019-02-16T19:26:48.072Z,101452.17
2019-02-16T19:29:27.701Z,101449.64
2019-02-16T19:31:57.996Z,101454.63
2019-02-16T19:34:28.461Z,101449.02
2019-02-16T19:37:07.829Z,101445.70
2019-02-16T19:39:38.081Z,101446.77
2019-02-16T19:42:08.377Z,101448.72
2019-02-16T19:44:38.632Z,101445.28
2019-02-16T19:47:11.839Z,101452.03
2019-02-16T19:49:57.173Z,101451.31
2019-02-16T19:52:27.569Z,101455.88
2019-02-16T19:54:57.801Z,101456.53
2019-02-16T19:57:31.005Z,101450.93
2019-02-16T20:00:17.957Z,101446.61
2019-02-16T20:03:03.429Z,101451.17
2019-02-16T20:05:33.685Z,101456.67
2019-02-16T20:08:09.860Z,101452.02
2019-02-16T20:10:56.491Z,101451.27
2019-02-16T20:13:29.743Z,101450.13
2019-02-16T20:16:02.970Z,101450.77
2019-02-16T20:18:51.700Z,101450.02
2019-02-16T20:21:40.222Z,101455.02
2019-02-16T20:24:13.239Z,101445.86
2019-02-16T20:26:43.851Z,101452.11
2019-02-16T20:29:14.141Z,101445.59
2019-02-16T20:32:00.833Z,101446.50
2019-02-16T20:34:31.111Z,101451.01
2019-02-16T20:37:07.391Z,101444.91
2019-02-16T20:39:43.819Z,101444.16
2019-02-16T20:42:14.105Z,101440.36
2019-02-16T20:44:47.062Z,101443.51
2019-02-16T20:47:26.527Z,101437.94
2019-02-16T20:49:59.586Z,101442.02
2019-02-16T20:52:32.908Z,101441.75
2019-02-16T20:55:03.094Z,101439.71
2019-02-16T20:57:33.352Z,101445.08
2019-02-16T21:00:06.247Z,101448.72
2019-02-16T21:02:36.492Z,101446.06
2019-02-16T21:05:25.390Z,101447.42
2019-02-16T21:07:55.744Z,101450.14
2019-02-16T21:10:26.021Z,101450.67
2019-02-16T21:12:56.270Z,101453.88
2019-02-16T21:15:26.576Z,101450.02
2019-02-16T21:17:57.544Z,101456.30
2019-02-16T21:20:44.233Z,101458.59
2019-02-16T21:23:30.937Z,101458.78
2019-02-16T21:26:04.114Z,101455.40
2019-02-16T21:28:37.248Z,101454.25
2019-02-16T21:31:10.262Z,101442.51
2019-02-16T21:33:46.295Z,101446.63
2019-02-16T21:36:16.580Z,101438.78
2019-02-16T21:39:03.697Z,101446.00
2019-02-16T21:41:49.248Z,101436.38
2019-02-16T21:44:22.485Z,101447.46
2019-02-16T21:47:02.833Z,101449.86
2019-02-16T21:49:33.070Z,101451.67
2019-02-16T21:52:03.391Z,101445.54
2019-02-16T21:54:42.546Z,101450.09
2019-02-16T21:57:24.787Z,101440.00
2019-02-16T22:00:13.026Z,101434.77
2019-02-16T22:02:49.156Z,101444.14
2019-02-16T22:05:19.552Z,101444.69
2019-02-16T22:07:59.256Z,101447.44
2019-02-16T22:10:29.752Z,101449.34
2019-02-16T22:13:02.568Z,101447.70
2019-02-16T22:15:31.424Z,101446.48
2019-02-16T22:18:00.044Z,101446.58
2019-02-16T22:20:28.694Z,101446.64
2019-02-16T22:22:57.346Z,101441.52
2019-02-16T22:25:26.041Z,101438.48
2019-02-16T22:27:54.682Z,101438.13
2019-02-16T22:30:23.414Z,101433.81
2019-02-16T22:32:52.084Z,101439.20
2019-02-16T22:35:20.768Z,101436.20
2019-02-16T22:37:49.494Z,101437.14
2019-02-16T22:40:18.280Z,101441.95
2019-02-16T22:42:46.930Z,101440.75
2019-02-16T22:45:15.579Z,101441.23
2019-02-16T22:47:44.196Z,101443.87
2019-02-16T22:50:12.883Z,101443.87
2019-02-16T22:52:42.118Z,101445.72
2019-02-16T22:55:10.846Z,101445.72
2019-02-16T22:57:39.497Z,101450.13
2019-02-16T23:00:18.764Z,101450.20
2019-02-16T23:02:47.680Z,101451.52
2019-02-16T23:05:16.386Z,101452.42
2019-02-16T23:07:44.993Z,101455.48
2019-02-16T23:10:13.942Z,101451.88
2019-02-16T23:12:42.559Z,101451.42
2019-02-16T23:15:12.333Z,101447.84
2019-02-16T23:17:41.061Z,101443.87
2019-02-16T23:20:11.565Z,101445.20
2019-02-16T23:22:40.815Z,101448.30
2019-02-16T23:25:09.635Z,101440.00
2019-02-16T23:27:38.384Z,101442.65
2019-02-16T23:30:11.753Z,101440.07
2019-02-16T23:32:40.610Z,101439.66
2019-02-16T23:35:09.744Z,101436.20
2019-02-16T23:37:38.379Z,101433.63
2019-02-16T23:40:08.500Z,101426.59
2019-02-16T23:42:37.294Z,101423.59
2019-02-16T23:45:08.611Z,101424.05
2019-02-16T23:47:37.237Z,101413.98
2019-02-16T23:50:08.653Z,101413.56
2019-02-16T23:52:37.300Z,101420.23
2019-02-16T23:55:08.805Z,101413.63
2019-02-16T23:57:37.475Z,101415.41
